Airfield :
LOGIN :

Register | Disclaimer

   EN    FR    IT 

 










Legend :    VFR   Marginal VFR   IFR   Intensive IFR   Very Intensive IFR
Visi :
Ceiling :
>= 8 km
>= 3000ft
5 to 8 km
1000 to 3000 ft
1500m to 5 km
500 to 1000 ft
800 to 1500m
200 to 500 ft
< 800m
< 200 ft
Symbols :   Thunderstorms  Fog  Heavy snow  Heavy precipitations  Wind > 20 kt
SIGMETs :     Misc.  Thunderstorms  Icing  Turbulence  Mountain Waves  Volcanic Ashes






- Airport Elevation : 116 ft
- IATA code : ISC


EGHE - Scilly Isles / St Mary's

CURRENT METAR :
  • 011520Z 29016KT 9999 BKN039 10/04 Q1031

EXPIRED METARs :
  • 011450Z 30015KT 9999 FEW025 BKN040 10/05 Q1031
  • 011420Z 28012KT 9999 FEW030 BKN035 10/05 Q1031
  • 011350Z 29015KT 9999 FEW030 BKN035 10/04 Q1031
  • 011320Z 27015KT 9999 BKN030 10/04 Q1031
  • 011250Z 27015KT 9999 BKN030 10/04 Q1031

TAF TAF EGHE
Valid from the 01 at 15:00 until the 01 at 18:00 UTC


011357Z 0115/0118 29012KT 9999 FEW025 SCT040
PROB40
TEMPO 0115/0118 30017G27KT



MET'MAP, your aeronautical weather chart ! - Copyright ORBIFLY December 2007 - Disclaimer

ORBIFLY MET'MAP TEAM :

Programming & Development : Alexandra Zaïnal
Original concept : Baudouin d'Aumeries
Technical & hardware support : Manuel Goepfert
Assistance : Marc-Olivier Méhu




SOURCES & CREDITS :

   NOAA